sensor_id;sensor_type;location;lat;lon;timestamp;P1;durP1;ratioP1;P2;durP2;ratioP2
25637;SDS011;13496;51.040;13.680;2023-08-01T00:01:29;6.20;;;4.07;;
25637;SDS011;13496;51.040;13.680;2023-08-01T00:06:31;5.03;;;3.45;;
25637;SDS011;13496;51.040;13.680;2023-08-01T00:11:33;5.50;;;4.20;;
25637;SDS011;13496;51.040;13.680;2023-08-01T00:16:34;5.25;;;3.70;;
25637;SDS011;13496;51.040;13.680;2023-08-01T00:21:36;5.57;;;3.85;;
25637;SDS011;13496;51.040;13.680;2023-08-01T00:26:38;6.63;;;3.95;;
25637;SDS011;13496;51.040;13.680;2023-08-01T00:31:40;5.22;;;3.85;;
25637;SDS011;13496;51.040;13.680;2023-08-01T00:36:41;6.55;;;4.03;;
25637;SDS011;13496;51.040;13.680;2023-08-01T00:41:43;5.88;;;3.78;;
25637;SDS011;13496;51.040;13.680;2023-08-01T00:46:45;4.85;;;3.70;;
25637;SDS011;13496;51.040;13.680;2023-08-01T00:51:47;6.90;;;3.88;;
25637;SDS011;13496;51.040;13.680;2023-08-01T00:56:50;5.05;;;3.53;;
25637;SDS011;13496;51.040;13.680;2023-08-01T01:01:51;4.53;;;3.30;;
25637;SDS011;13496;51.040;13.680;2023-08-01T01:07:03;4.80;;;3.65;;
25637;SDS011;13496;51.040;13.680;2023-08-01T01:12:07;5.07;;;3.35;;
25637;SDS011;13496;51.040;13.680;2023-08-01T01:17:09;4.75;;;3.13;;
25637;SDS011;13496;51.040;13.680;2023-08-01T01:22:11;5.35;;;3.80;;
25637;SDS011;13496;51.040;13.680;2023-08-01T01:27:13;4.70;;;3.33;;
25637;SDS011;13496;51.040;13.680;2023-08-01T01:32:18;4.53;;;3.28;;
25637;SDS011;13496;51.040;13.680;2023-08-01T01:37:21;4.95;;;3.40;;
25637;SDS011;13496;51.040;13.680;2023-08-01T01:42:23;3.58;;;2.92;;
25637;SDS011;13496;51.040;13.680;2023-08-01T01:47:24;4.30;;;3.42;;
25637;SDS011;13496;51.040;13.680;2023-08-01T01:52:26;4.80;;;3.15;;
25637;SDS011;13496;51.040;13.680;2023-08-01T01:57:28;5.10;;;3.22;;
25637;SDS011;13496;51.040;13.680;2023-08-01T02:02:29;3.88;;;3.10;;
25637;SDS011;13496;51.040;13.680;2023-08-01T02:07:31;4.68;;;3.17;;
25637;SDS011;13496;51.040;13.680;2023-08-01T02:12:35;5.00;;;3.13;;
25637;SDS011;13496;51.040;13.680;2023-08-01T02:17:38;3.92;;;3.05;;
25637;SDS011;13496;51.040;13.680;2023-08-01T02:22:41;2.80;;;2.50;;
25637;SDS011;13496;51.040;13.680;2023-08-01T02:27:42;3.83;;;2.88;;
25637;SDS011;13496;51.040;13.680;2023-08-01T02:32:44;4.45;;;2.92;;
25637;SDS011;13496;51.040;13.680;2023-08-01T02:37:46;4.05;;;2.58;;
25637;SDS011;13496;51.040;13.680;2023-08-01T02:42:48;3.33;;;2.90;;
25637;SDS011;13496;51.040;13.680;2023-08-01T02:47:50;4.15;;;2.78;;
25637;SDS011;13496;51.040;13.680;2023-08-01T02:52:52;3.60;;;2.78;;
25637;SDS011;13496;51.040;13.680;2023-08-01T02:57:53;2.97;;;2.53;;
25637;SDS011;13496;51.040;13.680;2023-08-01T03:02:55;3.17;;;2.72;;
25637;SDS011;13496;51.040;13.680;2023-08-01T03:07:58;3.00;;;2.50;;
25637;SDS011;13496;51.040;13.680;2023-08-01T03:13:00;3.45;;;2.80;;
25637;SDS011;13496;51.040;13.680;2023-08-01T03:18:02;2.80;;;2.58;;
25637;SDS011;13496;51.040;13.680;2023-08-01T03:23:04;3.42;;;2.58;;
25637;SDS011;13496;51.040;13.680;2023-08-01T03:28:07;3.20;;;2.75;;
25637;SDS011;13496;51.040;13.680;2023-08-01T03:33:08;3.47;;;2.70;;
25637;SDS011;13496;51.040;13.680;2023-08-01T03:38:10;3.15;;;2.58;;
25637;SDS011;13496;51.040;13.680;2023-08-01T03:43:12;3.10;;;2.47;;
25637;SDS011;13496;51.040;13.680;2023-08-01T03:48:14;2.55;;;2.30;;
25637;SDS011;13496;51.040;13.680;2023-08-01T03:53:16;3.15;;;2.60;;
25637;SDS011;13496;51.040;13.680;2023-08-01T03:58:17;3.22;;;2.55;;
25637;SDS011;13496;51.040;13.680;2023-08-01T04:03:19;2.85;;;2.60;;
25637;SDS011;13496;51.040;13.680;2023-08-01T04:08:21;2.60;;;2.40;;
25637;SDS011;13496;51.040;13.680;2023-08-01T04:13:22;4.07;;;2.63;;
25637;SDS011;13496;51.040;13.680;2023-08-01T04:18:24;3.42;;;2.45;;
25637;SDS011;13496;51.040;13.680;2023-08-01T04:23:26;2.80;;;2.60;;
25637;SDS011;13496;51.040;13.680;2023-08-01T04:28:27;4.18;;;2.58;;
25637;SDS011;13496;51.040;13.680;2023-08-01T04:33:29;2.55;;;2.30;;
25637;SDS011;13496;51.040;13.680;2023-08-01T04:38:31;2.92;;;2.30;;
25637;SDS011;13496;51.040;13.680;2023-08-01T04:43:33;2.78;;;2.20;;
25637;SDS011;13496;51.040;13.680;2023-08-01T04:48:34;2.72;;;2.45;;
25637;SDS011;13496;51.040;13.680;2023-08-01T04:53:36;2.88;;;2.38;;
25637;SDS011;13496;51.040;13.680;2023-08-01T04:58:38;3.03;;;2.20;;
25637;SDS011;13496;51.040;13.680;2023-08-01T05:03:39;2.67;;;1.90;;
25637;SDS011;13496;51.040;13.680;2023-08-01T05:08:41;3.40;;;2.30;;
25637;SDS011;13496;51.040;13.680;2023-08-01T05:13:43;3.30;;;2.30;;
25637;SDS011;13496;51.040;13.680;2023-08-01T05:18:45;2.22;;;1.90;;
25637;SDS011;13496;51.040;13.680;2023-08-01T05:23:46;3.33;;;2.20;;
25637;SDS011;13496;51.040;13.680;2023-08-01T05:28:48;2.47;;;2.13;;
25637;SDS011;13496;51.040;13.680;2023-08-01T05:33:50;2.55;;;2.33;;
25637;SDS011;13496;51.040;13.680;2023-08-01T05:38:52;2.08;;;1.88;;
25637;SDS011;13496;51.040;13.680;2023-08-01T05:43:53;2.22;;;2.03;;
25637;SDS011;13496;51.040;13.680;2023-08-01T05:48:55;2.17;;;1.98;;
25637;SDS011;13496;51.040;13.680;2023-08-01T05:53:57;3.13;;;2.25;;
25637;SDS011;13496;51.040;13.680;2023-08-01T05:58:58;1.73;;;1.63;;
25637;SDS011;13496;51.040;13.680;2023-08-01T06:04:00;2.53;;;1.95;;
25637;SDS011;13496;51.040;13.680;2023-08-01T06:09:02;2.20;;;2.00;;
25637;SDS011;13496;51.040;13.680;2023-08-01T06:14:04;2.30;;;2.10;;
25637;SDS011;13496;51.040;13.680;2023-08-01T06:19:05;1.83;;;1.73;;
25637;SDS011;13496;51.040;13.680;2023-08-01T06:24:07;2.30;;;2.00;;
25637;SDS011;13496;51.040;13.680;2023-08-01T06:29:09;2.13;;;1.88;;
25637;SDS011;13496;51.040;13.680;2023-08-01T06:34:11;2.42;;;2.10;;
25637;SDS011;13496;51.040;13.680;2023-08-01T06:39:13;2.92;;;2.10;;
25637;SDS011;13496;51.040;13.680;2023-08-01T06:44:14;2.22;;;2.03;;
25637;SDS011;13496;51.040;13.680;2023-08-01T06:49:16;2.40;;;1.92;;
25637;SDS011;13496;51.040;13.680;2023-08-01T06:54:18;2.00;;;1.70;;
25637;SDS011;13496;51.040;13.680;2023-08-01T06:59:19;2.25;;;2.05;;
25637;SDS011;13496;51.040;13.680;2023-08-01T07:04:21;2.08;;;1.80;;
25637;SDS011;13496;51.040;13.680;2023-08-01T07:09:23;2.33;;;1.70;;
25637;SDS011;13496;51.040;13.680;2023-08-01T07:14:25;1.50;;;1.40;;
25637;SDS011;13496;51.040;13.680;2023-08-01T07:19:27;1.80;;;1.70;;
25637;SDS011;13496;51.040;13.680;2023-08-01T07:24:28;1.90;;;1.80;;
25637;SDS011;13496;51.040;13.680;2023-08-01T07:29:30;1.95;;;1.75;;
25637;SDS011;13496;51.040;13.680;2023-08-01T07:34:32;2.20;;;1.92;;
25637;SDS011;13496;51.040;13.680;2023-08-01T07:39:34;2.05;;;1.65;;
25637;SDS011;13496;51.040;13.680;2023-08-01T07:44:36;1.60;;;1.50;;
25637;SDS011;13496;51.040;13.680;2023-08-01T07:49:37;1.70;;;1.52;;
25637;SDS011;13496;51.040;13.680;2023-08-01T07:54:40;1.70;;;1.60;;
25637;SDS011;13496;51.040;13.680;2023-08-01T07:59:42;2.00;;;1.60;;
25637;SDS011;13496;51.040;13.680;2023-08-01T08:04:43;1.50;;;1.38;;
25637;SDS011;13496;51.040;13.680;2023-08-01T08:09:45;1.60;;;1.50;;
25637;SDS011;13496;51.040;13.680;2023-08-01T08:14:47;2.17;;;1.63;;
25637;SDS011;13496;51.040;13.680;2023-08-01T08:19:49;1.50;;;1.40;;
25637;SDS011;13496;51.040;13.680;2023-08-01T08:24:51;1.60;;;1.50;;
25637;SDS011;13496;51.040;13.680;2023-08-01T08:29:53;1.48;;;1.38;;
25637;SDS011;13496;51.040;13.680;2023-08-01T08:34:54;1.85;;;1.27;;
25637;SDS011;13496;51.040;13.680;2023-08-01T08:39:56;1.60;;;1.20;;
25637;SDS011;13496;51.040;13.680;2023-08-01T08:44:58;1.30;;;1.20;;
25637;SDS011;13496;51.040;13.680;2023-08-01T08:50:03;1.50;;;1.40;;
25637;SDS011;13496;51.040;13.680;2023-08-01T08:55:06;1.40;;;1.30;;
25637;SDS011;13496;51.040;13.680;2023-08-01T09:00:08;1.42;;;1.23;;
25637;SDS011;13496;51.040;13.680;2023-08-01T09:05:11;1.85;;;1.15;;
25637;SDS011;13496;51.040;13.680;2023-08-01T09:10:13;1.33;;;1.20;;
25637;SDS011;13496;51.040;13.680;2023-08-01T09:15:15;1.20;;;1.08;;
25637;SDS011;13496;51.040;13.680;2023-08-01T09:20:17;1.25;;;1.15;;
25637;SDS011;13496;51.040;13.680;2023-08-01T09:25:19;1.30;;;1.20;;
25637;SDS011;13496;51.040;13.680;2023-08-01T09:30:21;1.23;;;1.02;;
25637;SDS011;13496;51.040;13.680;2023-08-01T09:35:23;1.20;;;1.10;;
25637;SDS011;13496;51.040;13.680;2023-08-01T09:40:35;0.95;;;0.90;;
25637;SDS011;13496;51.040;13.680;2023-08-01T09:45:37;1.42;;;1.20;;
25637;SDS011;13496;51.040;13.680;2023-08-01T09:50:50;1.00;;;1.00;;
25637;SDS011;13496;51.040;13.680;2023-08-01T09:55:51;1.00;;;1.00;;
25637;SDS011;13496;51.040;13.680;2023-08-01T10:00:55;1.00;;;1.00;;
25637;SDS011;13496;51.040;13.680;2023-08-01T10:05:57;0.93;;;0.93;;
25637;SDS011;13496;51.040;13.680;2023-08-01T10:11:02;1.08;;;1.08;;
25637;SDS011;13496;51.040;13.680;2023-08-01T10:16:05;0.90;;;0.88;;
25637;SDS011;13496;51.040;13.680;2023-08-01T10:21:11;0.88;;;0.82;;
25637;SDS011;13496;51.040;13.680;2023-08-01T10:26:15;1.15;;;0.90;;
25637;SDS011;13496;51.040;13.680;2023-08-01T10:31:19;1.02;;;0.95;;
25637;SDS011;13496;51.040;13.680;2023-08-01T10:36:22;0.90;;;0.90;;
25637;SDS011;13496;51.040;13.680;2023-08-01T10:41:32;0.88;;;0.88;;
25637;SDS011;13496;51.040;13.680;2023-08-01T10:46:51;0.90;;;0.90;;
25637;SDS011;13496;51.040;13.680;2023-08-01T10:51:53;1.10;;;1.00;;
25637;SDS011;13496;51.040;13.680;2023-08-01T10:56:55;0.80;;;0.80;;
25637;SDS011;13496;51.040;13.680;2023-08-01T11:02:01;0.77;;;0.77;;
25637;SDS011;13496;51.040;13.680;2023-08-01T11:07:04;1.10;;;1.00;;
25637;SDS011;13496;51.040;13.680;2023-08-01T11:12:06;0.73;;;0.73;;
25637;SDS011;13496;51.040;13.680;2023-08-01T11:17:08;0.90;;;0.90;;
25637;SDS011;13496;51.040;13.680;2023-08-01T11:22:10;0.80;;;0.80;;
25637;SDS011;13496;51.040;13.680;2023-08-01T11:27:12;1.15;;;0.88;;
25637;SDS011;13496;51.040;13.680;2023-08-01T11:32:14;0.88;;;0.88;;
25637;SDS011;13496;51.040;13.680;2023-08-01T11:37:17;0.80;;;0.80;;
25637;SDS011;13496;51.040;13.680;2023-08-01T11:42:20;0.80;;;0.60;;
25637;SDS011;13496;51.040;13.680;2023-08-01T11:47:21;1.00;;;0.90;;
25637;SDS011;13496;51.040;13.680;2023-08-01T11:52:28;0.70;;;0.70;;
25637;SDS011;13496;51.040;13.680;2023-08-01T11:57:30;0.80;;;0.80;;
25637;SDS011;13496;51.040;13.680;2023-08-01T12:02:32;0.77;;;0.77;;
25637;SDS011;13496;51.040;13.680;2023-08-01T12:07:34;0.70;;;0.70;;
25637;SDS011;13496;51.040;13.680;2023-08-01T12:12:42;0.77;;;0.77;;
25637;SDS011;13496;51.040;13.680;2023-08-01T12:17:46;0.80;;;0.80;;
25637;SDS011;13496;51.040;13.680;2023-08-01T12:22:47;1.50;;;0.80;;
25637;SDS011;13496;51.040;13.680;2023-08-01T12:27:49;0.70;;;0.70;;
25637;SDS011;13496;51.040;13.680;2023-08-01T12:32:51;1.00;;;0.77;;
25637;SDS011;13496;51.040;13.680;2023-08-01T12:37:53;1.20;;;0.88;;
25637;SDS011;13496;51.040;13.680;2023-08-01T12:42:55;0.85;;;0.85;;
25637;SDS011;13496;51.040;13.680;2023-08-01T12:47:56;1.00;;;0.90;;
25637;SDS011;13496;51.040;13.680;2023-08-01T12:52:58;0.80;;;0.80;;
25637;SDS011;13496;51.040;13.680;2023-08-01T12:58:00;1.00;;;0.90;;
25637;SDS011;13496;51.040;13.680;2023-08-01T13:03:01;1.23;;;0.90;;
25637;SDS011;13496;51.040;13.680;2023-08-01T13:08:03;0.82;;;0.63;;
25637;SDS011;13496;51.040;13.680;2023-08-01T13:13:05;0.80;;;0.80;;
25637;SDS011;13496;51.040;13.680;2023-08-01T13:18:07;0.80;;;0.80;;
25637;SDS011;13496;51.040;13.680;2023-08-01T13:23:09;0.80;;;0.80;;
25637;SDS011;13496;51.040;13.680;2023-08-01T13:28:11;1.20;;;1.02;;
25637;SDS011;13496;51.040;13.680;2023-08-01T13:33:12;1.35;;;1.02;;
25637;SDS011;13496;51.040;13.680;2023-08-01T13:38:14;1.67;;;1.00;;
25637;SDS011;13496;51.040;13.680;2023-08-01T13:43:18;0.95;;;0.90;;
25637;SDS011;13496;51.040;13.680;2023-08-01T13:48:20;0.80;;;0.80;;
25637;SDS011;13496;51.040;13.680;2023-08-01T13:53:21;1.80;;;1.00;;
25637;SDS011;13496;51.040;13.680;2023-08-01T13:58:23;0.82;;;0.82;;
25637;SDS011;13496;51.040;13.680;2023-08-01T14:03:25;0.80;;;0.80;;
25637;SDS011;13496;51.040;13.680;2023-08-01T14:08:26;0.77;;;0.75;;
25637;SDS011;13496;51.040;13.680;2023-08-01T14:13:28;1.15;;;1.05;;
25637;SDS011;13496;51.040;13.680;2023-08-01T14:18:30;1.45;;;1.00;;
25637;SDS011;13496;51.040;13.680;2023-08-01T14:23:31;0.93;;;0.90;;
25637;SDS011;13496;51.040;13.680;2023-08-01T14:28:33;1.17;;;0.80;;
25637;SDS011;13496;51.040;13.680;2023-08-01T14:33:35;1.30;;;1.20;;
25637;SDS011;13496;51.040;13.680;2023-08-01T14:38:36;1.45;;;1.10;;
25637;SDS011;13496;51.040;13.680;2023-08-01T14:43:38;1.30;;;1.20;;
25637;SDS011;13496;51.040;13.680;2023-08-01T14:48:40;1.15;;;1.05;;
25637;SDS011;13496;51.040;13.680;2023-08-01T14:53:41;1.17;;;1.10;;
25637;SDS011;13496;51.040;13.680;2023-08-01T14:58:43;1.00;;;1.00;;
25637;SDS011;13496;51.040;13.680;2023-08-01T15:03:45;1.15;;;1.05;;
25637;SDS011;13496;51.040;13.680;2023-08-01T15:08:47;1.20;;;1.10;;
25637;SDS011;13496;51.040;13.680;2023-08-01T15:13:48;2.25;;;1.27;;
25637;SDS011;13496;51.040;13.680;2023-08-01T15:18:50;1.80;;;1.40;;
25637;SDS011;13496;51.040;13.680;2023-08-01T15:23:52;1.23;;;1.00;;
25637;SDS011;13496;51.040;13.680;2023-08-01T15:28:55;1.58;;;1.20;;
25637;SDS011;13496;51.040;13.680;2023-08-01T15:33:57;1.50;;;1.40;;
25637;SDS011;13496;51.040;13.680;2023-08-01T15:38:58;1.45;;;1.35;;
25637;SDS011;13496;51.040;13.680;2023-08-01T15:44:00;1.25;;;1.15;;
25637;SDS011;13496;51.040;13.680;2023-08-01T15:49:02;1.55;;;1.30;;
25637;SDS011;13496;51.040;13.680;2023-08-01T15:54:05;1.75;;;1.50;;
25637;SDS011;13496;51.040;13.680;2023-08-01T15:59:08;1.30;;;1.30;;
25637;SDS011;13496;51.040;13.680;2023-08-01T16:04:10;1.52;;;1.42;;
25637;SDS011;13496;51.040;13.680;2023-08-01T16:09:13;2.15;;;1.65;;
25637;SDS011;13496;51.040;13.680;2023-08-01T16:14:15;1.30;;;1.20;;
25637;SDS011;13496;51.040;13.680;2023-08-01T16:19:17;1.60;;;1.50;;
25637;SDS011;13496;51.040;13.680;2023-08-01T16:24:18;2.42;;;1.77;;
25637;SDS011;13496;51.040;13.680;2023-08-01T16:29:20;1.40;;;1.30;;
25637;SDS011;13496;51.040;13.680;2023-08-01T16:34:22;1.60;;;1.50;;
25637;SDS011;13496;51.040;13.680;2023-08-01T16:39:24;1.83;;;1.73;;
25637;SDS011;13496;51.040;13.680;2023-08-01T16:44:25;1.52;;;1.42;;
25637;SDS011;13496;51.040;13.680;2023-08-01T16:49:27;3.75;;;1.80;;
25637;SDS011;13496;51.040;13.680;2023-08-01T16:54:29;1.60;;;1.50;;
25637;SDS011;13496;51.040;13.680;2023-08-01T16:59:30;2.03;;;1.83;;
25637;SDS011;13496;51.040;13.680;2023-08-01T17:04:32;1.77;;;1.63;;
25637;SDS011;13496;51.040;13.680;2023-08-01T17:09:34;1.67;;;1.30;;
25637;SDS011;13496;51.040;13.680;2023-08-01T17:14:36;2.15;;;1.60;;
25637;SDS011;13496;51.040;13.680;2023-08-01T17:19:38;1.50;;;1.40;;
25637;SDS011;13496;51.040;13.680;2023-08-01T17:24:39;1.40;;;1.30;;
25637;SDS011;13496;51.040;13.680;2023-08-01T17:29:42;1.52;;;1.42;;
25637;SDS011;13496;51.040;13.680;2023-08-01T17:34:44;1.90;;;1.80;;
25637;SDS011;13496;51.040;13.680;2023-08-01T17:39:46;1.73;;;1.63;;
25637;SDS011;13496;51.040;13.680;2023-08-01T17:44:47;1.65;;;1.55;;
25637;SDS011;13496;51.040;13.680;2023-08-01T17:49:49;2.03;;;1.58;;
25637;SDS011;13496;51.040;13.680;2023-08-01T17:54:51;1.25;;;1.15;;
25637;SDS011;13496;51.040;13.680;2023-08-01T17:59:53;1.40;;;1.30;;
25637;SDS011;13496;51.040;13.680;2023-08-01T18:04:54;1.40;;;1.30;;
25637;SDS011;13496;51.040;13.680;2023-08-01T18:09:56;1.40;;;1.30;;
25637;SDS011;13496;51.040;13.680;2023-08-01T18:14:58;1.45;;;1.35;;
25637;SDS011;13496;51.040;13.680;2023-08-01T18:20:00;1.75;;;1.65;;
25637;SDS011;13496;51.040;13.680;2023-08-01T18:25:02;1.50;;;1.40;;
25637;SDS011;13496;51.040;13.680;2023-08-01T18:30:04;1.67;;;1.50;;
25637;SDS011;13496;51.040;13.680;2023-08-01T18:35:06;1.67;;;1.58;;
25637;SDS011;13496;51.040;13.680;2023-08-01T18:40:08;1.40;;;1.30;;
25637;SDS011;13496;51.040;13.680;2023-08-01T18:45:10;1.50;;;1.40;;
25637;SDS011;13496;51.040;13.680;2023-08-01T18:50:12;1.48;;;1.38;;
25637;SDS011;13496;51.040;13.680;2023-08-01T18:55:14;1.60;;;1.50;;
25637;SDS011;13496;51.040;13.680;2023-08-01T19:00:15;1.40;;;1.30;;
25637;SDS011;13496;51.040;13.680;2023-08-01T19:05:17;1.70;;;1.60;;
25637;SDS011;13496;51.040;13.680;2023-08-01T19:10:19;1.40;;;1.30;;
25637;SDS011;13496;51.040;13.680;2023-08-01T19:15:20;1.35;;;1.25;;
25637;SDS011;13496;51.040;13.680;2023-08-01T19:20:22;1.50;;;1.40;;
25637;SDS011;13496;51.040;13.680;2023-08-01T19:25:24;1.50;;;1.40;;
25637;SDS011;13496;51.040;13.680;2023-08-01T19:30:26;1.60;;;1.50;;
25637;SDS011;13496;51.040;13.680;2023-08-01T19:35:41;1.65;;;1.55;;
25637;SDS011;13496;51.040;13.680;2023-08-01T19:40:43;1.75;;;1.50;;
25637;SDS011;13496;51.040;13.680;2023-08-01T19:45:45;1.52;;;1.42;;
25637;SDS011;13496;51.040;13.680;2023-08-01T19:50:47;1.60;;;1.50;;
25637;SDS011;13496;51.040;13.680;2023-08-01T19:55:54;1.67;;;1.58;;
25637;SDS011;13496;51.040;13.680;2023-08-01T20:00:56;1.52;;;1.42;;
25637;SDS011;13496;51.040;13.680;2023-08-01T20:05:58;1.42;;;1.33;;
25637;SDS011;13496;51.040;13.680;2023-08-01T20:11:01;1.50;;;1.40;;
25637;SDS011;13496;51.040;13.680;2023-08-01T20:16:03;1.70;;;1.60;;
25637;SDS011;13496;51.040;13.680;2023-08-01T20:21:05;1.70;;;1.60;;
25637;SDS011;13496;51.040;13.680;2023-08-01T20:26:07;2.78;;;1.80;;
25637;SDS011;13496;51.040;13.680;2023-08-01T20:31:09;2.30;;;2.10;;
25637;SDS011;13496;51.040;13.680;2023-08-01T20:36:10;2.08;;;1.90;;
25637;SDS011;13496;51.040;13.680;2023-08-01T20:41:13;2.22;;;1.98;;
25637;SDS011;13496;51.040;13.680;2023-08-01T20:46:15;2.38;;;2.17;;
25637;SDS011;13496;51.040;13.680;2023-08-01T20:51:17;2.47;;;2.28;;
25637;SDS011;13496;51.040;13.680;2023-08-01T20:56:19;2.20;;;2.00;;
25637;SDS011;13496;51.040;13.680;2023-08-01T21:01:20;2.55;;;2.35;;
25637;SDS011;13496;51.040;13.680;2023-08-01T21:06:22;2.30;;;2.10;;
25637;SDS011;13496;51.040;13.680;2023-08-01T21:11:24;2.28;;;2.08;;
25637;SDS011;13496;51.040;13.680;2023-08-01T21:16:26;2.55;;;2.30;;
25637;SDS011;13496;51.040;13.680;2023-08-01T21:21:27;3.47;;;2.28;;
25637;SDS011;13496;51.040;13.680;2023-08-01T21:26:29;2.95;;;2.50;;
25637;SDS011;13496;51.040;13.680;2023-08-01T21:31:31;2.70;;;2.40;;
25637;SDS011;13496;51.040;13.680;2023-08-01T21:36:32;2.42;;;2.13;;
25637;SDS011;13496;51.040;13.680;2023-08-01T21:41:34;2.50;;;2.30;;
25637;SDS011;13496;51.040;13.680;2023-08-01T21:46:36;3.08;;;2.17;;
25637;SDS011;13496;51.040;13.680;2023-08-01T21:51:37;4.30;;;2.28;;
25637;SDS011;13496;51.040;13.680;2023-08-01T21:56:39;2.45;;;2.17;;
25637;SDS011;13496;51.040;13.680;2023-08-01T22:01:41;2.38;;;2.08;;
25637;SDS011;13496;51.040;13.680;2023-08-01T22:06:42;2.45;;;2.25;;
25637;SDS011;13496;51.040;13.680;2023-08-01T22:11:44;3.05;;;2.10;;
25637;SDS011;13496;51.040;13.680;2023-08-01T22:16:46;2.13;;;1.90;;
25637;SDS011;13496;51.040;13.680;2023-08-01T22:21:48;2.47;;;2.28;;
25637;SDS011;13496;51.040;13.680;2023-08-01T22:26:49;2.10;;;2.00;;
25637;SDS011;13496;51.040;13.680;2023-08-01T22:31:51;2.00;;;1.85;;
25637;SDS011;13496;51.040;13.680;2023-08-01T22:36:53;1.95;;;1.77;;
25637;SDS011;13496;51.040;13.680;2023-08-01T22:41:55;2.25;;;2.10;;
25637;SDS011;13496;51.040;13.680;2023-08-01T22:46:57;2.30;;;1.80;;
25637;SDS011;13496;51.040;13.680;2023-08-01T22:51:58;2.28;;;1.90;;
25637;SDS011;13496;51.040;13.680;2023-08-01T22:57:00;2.33;;;1.90;;
25637;SDS011;13496;51.040;13.680;2023-08-01T23:02:02;1.80;;;1.70;;
25637;SDS011;13496;51.040;13.680;2023-08-01T23:07:04;1.98;;;1.88;;
25637;SDS011;13496;51.040;13.680;2023-08-01T23:12:06;1.85;;;1.75;;
25637;SDS011;13496;51.040;13.680;2023-08-01T23:17:08;2.05;;;1.85;;
25637;SDS011;13496;51.040;13.680;2023-08-01T23:22:11;1.80;;;1.70;;
25637;SDS011;13496;51.040;13.680;2023-08-01T23:27:12;1.92;;;1.83;;
25637;SDS011;13496;51.040;13.680;2023-08-01T23:32:15;1.70;;;1.60;;
25637;SDS011;13496;51.040;13.680;2023-08-01T23:37:17;1.67;;;1.58;;
25637;SDS011;13496;51.040;13.680;2023-08-01T23:42:18;1.98;;;1.75;;
25637;SDS011;13496;51.040;13.680;2023-08-01T23:47:20;1.70;;;1.60;;
25637;SDS011;13496;51.040;13.680;2023-08-01T23:52:22;1.85;;;1.73;;
25637;SDS011;13496;51.040;13.680;2023-08-01T23:57:23;2.08;;;1.55;;
